Time;durP1;ratioP1;P1;durP2;ratioP2;P2;SDS_P1;SDS_P2;PMS_P1;PMS_P2;Temp;Humidity;BMP_temperature;BMP_pressure;BME280_temperature;BME280_humidity;BME280_pressure;Samples;Min_cycle;Max_cycle;Signal;HPM_P1;HPM_P2
2024/03/07 00:00:36;;;;;;;26.92;14.68;;;;;;;6.34;100.00;100119.97;5090449;28;20012;-77
2024/03/07 00:03:02;;;;;;;26.40;15.38;;;;;;;6.40;100.00;100124.50;5072001;28;20039;-77
2024/03/07 00:05:27;;;;;;;25.55;13.95;;;;;;;6.29;100.00;100101.16;5072201;28;20028;-77
2024/03/07 00:07:53;;;;;;;28.65;15.02;;;;;;;6.33;100.00;100101.59;5072337;28;20669;-76
2024/03/07 00:10:21;;;;;;;30.65;15.30;;;;;;;6.15;100.00;100087.00;5071981;28;20156;-77
2024/03/07 00:12:48;;;;;;;26.85;14.52;;;;;;;6.16;100.00;100101.84;5072432;28;20028;-77
2024/03/07 00:15:14;;;;;;;28.17;17.48;;;;;;;6.29;100.00;100101.16;5090388;28;20024;-77
2024/03/07 00:17:40;;;;;;;29.15;16.25;;;;;;;6.40;100.00;100108.59;5090314;28;20038;-77
2024/03/07 00:20:09;;;;;;;26.95;14.98;;;;;;;6.37;100.00;100097.56;5089942;28;20032;-77
2024/03/07 00:22:37;;;;;;;26.48;13.50;;;;;;;6.07;100.00;100086.28;5090684;28;20032;-77
2024/03/07 00:25:06;;;;;;;26.67;14.23;;;;;;;6.19;100.00;100096.19;5072306;28;20485;-76
2024/03/07 00:27:33;;;;;;;26.52;14.80;;;;;;;6.18;100.00;100086.59;5090982;28;20101;-77
2024/03/07 00:30:02;;;;;;;30.25;14.48;;;;;;;5.98;100.00;100083.75;5079679;28;20096;-76
2024/03/07 00:32:29;;;;;;;32.60;17.50;;;;;;;5.95;100.00;100084.13;5101899;28;20028;-77
2024/03/07 00:34:56;;;;;;;28.50;16.02;;;;;;;6.01;100.00;100082.56;5102103;28;20791;-77
2024/03/07 00:37:23;;;;;;;28.58;15.82;;;;;;;5.78;100.00;100056.22;5083559;28;20063;-77
2024/03/07 00:39:49;;;;;;;29.15;15.23;;;;;;;6.04;100.00;100077.69;5101836;28;20028;-76
2024/03/07 00:42:14;;;;;;;27.30;15.52;;;;;;;5.96;100.00;100075.19;5101343;28;20024;-77
2024/03/07 00:44:40;;;;;;;25.30;14.88;;;;;;;5.91;100.00;100051.09;5100889;28;20085;-78
2024/03/07 00:47:05;;;;;;;26.98;15.40;;;;;;;5.90;100.00;100054.72;5082261;28;20453;-78
2024/03/07 00:49:31;;;;;;;23.23;13.48;;;;;;;5.77;100.00;100067.84;5099607;28;20032;-77
2024/03/07 00:51:58;;;;;;;27.73;15.68;;;;;;;5.86;100.00;100064.03;5099842;28;20040;-77
2024/03/07 00:54:23;;;;;;;29.88;14.82;;;;;;;5.86;100.00;100053.47;5080950;28;20092;-77
2024/03/07 00:56:51;;;;;;;28.08;14.38;;;;;;;6.07;100.00;100065.09;5098535;28;20500;-78
2024/03/07 00:59:17;;;;;;;23.02;12.77;;;;;;;5.83;100.00;100059.16;5077113;28;20031;-77
2024/03/07 01:01:42;;;;;;;26.45;14.35;;;;;;;5.90;100.00;100067.97;5093306;28;20047;-77
2024/03/07 01:04:08;;;;;;;26.77;13.45;;;;;;;5.81;100.00;100061.97;5091621;28;20027;-77
2024/03/07 01:06:36;;;;;;;28.63;14.38;;;;;;;5.93;100.00;100080.84;5091233;28;20440;-77
2024/03/07 01:09:02;;;;;;;27.20;13.83;;;;;;;5.91;100.00;100072.25;5091019;28;20050;-77
2024/03/07 01:11:28;;;;;;;26.63;14.18;;;;;;;5.82;100.00;100073.38;5090399;28;20378;-77
2024/03/07 01:13:53;;;;;;;26.95;14.88;;;;;;;5.72;100.00;100072.84;5089941;28;20111;-77
2024/03/07 01:16:19;;;;;;;27.48;12.70;;;;;;;5.89;100.00;100074.28;5071495;28;20028;-77
2024/03/07 01:18:44;;;;;;;26.33;13.18;;;;;;;5.70;100.00;100059.84;5089392;28;20032;-78
2024/03/07 01:21:09;;;;;;;28.55;13.73;;;;;;;5.79;100.00;100058.69;5088881;28;20055;-77
2024/03/07 01:23:35;;;;;;;25.75;14.10;;;;;;;6.01;100.00;100072.00;5070592;28;20481;-78
2024/03/07 01:26:00;;;;;;;27.80;13.68;;;;;;;5.95;100.00;100062.97;5089026;28;20036;-77
2024/03/07 01:28:29;;;;;;;23.83;11.80;;;;;;;5.96;100.00;100069.88;5070869;28;20048;-77
2024/03/07 01:30:56;;;;;;;24.23;12.55;;;;;;;5.99;100.00;100063.41;5082465;28;20660;-77
2024/03/07 01:33:22;;;;;;;25.60;13.18;;;;;;;5.88;100.00;100056.75;5088148;28;20505;-77
2024/03/07 01:35:48;;;;;;;23.23;12.20;;;;;;;5.88;100.00;100043.50;5088378;28;20085;-77
2024/03/07 01:38:15;;;;;;;20.10;11.73;;;;;;;6.13;100.00;100054.59;5088834;28;20031;-77
2024/03/07 01:40:41;;;;;;;26.23;12.10;;;;;;;6.07;100.00;100071.22;5087853;28;20105;-77
2024/03/07 01:43:07;;;;;;;24.33;11.82;;;;;;;6.04;100.00;100059.16;5061874;28;20999;-77
2024/03/07 01:45:33;;;;;;;21.20;12.20;;;;;;;5.80;100.00;100044.47;5069923;28;20111;-77
2024/03/07 01:47:59;;;;;;;23.23;11.90;;;;;;;6.04;100.00;100059.16;5088067;28;20107;-77
2024/03/07 01:50:24;;;;;;;24.40;12.20;;;;;;;6.14;100.00;100050.09;5088190;28;20028;-76
2024/03/07 01:52:55;;;;;;;22.98;12.05;;;;;;;6.11;100.00;100050.47;5087914;28;20111;-77
2024/03/07 01:55:22;;;;;;;22.80;11.57;;;;;;;5.99;100.00;100047.53;5085739;28;20024;-76
2024/03/07 01:57:47;;;;;;;25.75;12.57;;;;;;;5.91;100.00;100034.41;5069589;28;20029;-77
2024/03/07 02:00:13;;;;;;;24.52;13.35;;;;;;;6.03;100.00;100060.19;5077393;28;20111;-77
2024/03/07 02:02:38;;;;;;;29.45;13.20;;;;;;;5.98;100.00;100030.00;5088067;28;20093;-77
2024/03/07 02:05:05;;;;;;;21.45;11.70;;;;;;;5.96;100.00;100043.41;5087926;28;20034;-76
2024/03/07 02:07:31;;;;;;;22.50;11.73;;;;;;;5.99;100.00;100063.41;5087770;28;20032;-77
2024/03/07 02:10:02;;;;;;;24.13;12.90;;;;;;;6.02;100.00;100074.44;5087087;28;20042;-76
2024/03/07 02:12:29;;;;;;;22.90;11.65;;;;;;;6.15;100.00;100057.03;5086357;28;20020;-77
2024/03/07 02:14:56;;;;;;;25.70;11.90;;;;;;;6.12;100.00;100057.41;5088025;28;20028;-76
2024/03/07 02:17:21;;;;;;;20.95;11.82;;;;;;;6.10;100.00;100056.78;5087496;28;20028;-76
2024/03/07 02:19:47;;;;;;;23.90;11.73;;;;;;;6.19;100.00;100045.03;5087517;28;20020;-77
2024/03/07 02:22:13;;;;;;;26.50;11.68;;;;;;;6.21;100.00;100048.31;5087102;28;20028;-78
2024/03/07 02:24:38;;;;;;;21.20;11.07;;;;;;;6.15;100.00;100051.72;5086936;28;20032;-77
2024/03/07 02:27:04;;;;;;;20.63;11.25;;;;;;;5.94;100.00;100034.81;5086733;28;20031;-78
2024/03/07 02:29:30;;;;;;;22.70;12.18;;;;;;;6.18;100.00;100048.72;5087119;28;20024;-77
2024/03/07 02:31:56;;;;;;;24.45;12.10;;;;;;;5.98;100.00;100051.97;5102490;28;20059;-77
2024/03/07 02:34:22;;;;;;;28.13;14.38;;;;;;;6.12;100.00;100042.34;5069110;28;20071;-76
2024/03/07 02:36:47;;;;;;;49.95;25.60;;;;;;;6.24;100.00;100061.19;5084775;28;20473;-76
2024/03/07 02:39:13;;;;;;;52.25;35.00;;;;;;;6.36;100.00;100072.91;5076018;28;20024;-78
2024/03/07 02:41:38;;;;;;;29.77;17.15;;;;;;;6.30;100.00;100067.56;5082134;28;20085;-76
2024/03/07 02:44:03;;;;;;;33.72;18.42;;;;;;;6.17;100.00;100049.72;5087224;28;20484;-77
2024/03/07 02:46:29;;;;;;;58.13;34.60;;;;;;;6.41;100.00;100078.44;5087263;28;20040;-78
2024/03/07 02:48:55;;;;;;;32.35;20.40;;;;;;;6.12;100.00;100066.16;5087092;28;20028;-77
2024/03/07 02:51:20;;;;;;;41.28;27.92;;;;;;;6.43;100.00;100083.56;5086713;28;20036;-77
2024/03/07 02:53:45;;;;;;;52.70;27.35;;;;;;;6.34;100.00;100080.22;5086924;28;20032;-77
2024/03/07 02:56:11;;;;;;;42.22;25.83;;;;;;;6.30;100.00;100071.03;5085705;28;20482;-77
2024/03/07 02:58:37;;;;;;;24.58;12.02;;;;;;;6.10;100.00;100060.25;5074737;28;20051;-78
2024/03/07 03:01:03;;;;;;;27.23;14.35;;;;;;;6.23;100.00;100047.13;5057439;28;20056;-78
2024/03/07 03:03:32;;;;;;;28.85;18.30;;;;;;;6.24;100.00;100055.91;5086530;28;20099;-76
2024/03/07 03:05:58;;;;;;;25.42;14.25;;;;;;;6.24;100.00;100034.72;5068474;28;20066;-77
2024/03/07 03:08:24;;;;;;;25.30;11.98;;;;;;;6.22;100.00;100052.63;5087053;28;20020;-77
2024/03/07 03:10:51;;;;;;;21.48;11.13;;;;;;;5.87;100.00;100028.66;5078575;28;20115;-77
2024/03/07 03:13:16;;;;;;;21.83;11.50;;;;;;;6.27;100.00;100070.56;5086121;28;20030;-77
2024/03/07 03:15:42;;;;;;;20.98;12.05;;;;;;;6.09;100.00;100042.75;5086440;28;20031;-77
2024/03/07 03:18:07;;;;;;;26.38;13.55;;;;;;;6.07;100.00;100041.25;5086617;28;20093;-78
2024/03/07 03:20:38;;;;;;;24.80;13.60;;;;;;;6.33;100.00;100053.94;5086622;28;20132;-78
2024/03/07 03:23:05;;;;;;;18.42;11.15;;;;;;;6.11;100.00;100037.22;5086014;28;20054;-77
2024/03/07 03:25:34;;;;;;;27.42;16.40;;;;;;;6.28;100.00;100057.16;5068287;28;20058;-77
2024/03/07 03:28:04;;;;;;;25.45;14.77;;;;;;;6.03;100.00;100039.00;5086273;28;20137;-77
2024/03/07 03:30:32;;;;;;;24.30;15.15;;;;;;;6.26;100.00;100055.72;5086228;28;20320;-76
2024/03/07 03:32:58;;;;;;;29.20;15.70;;;;;;;6.21;100.00;100050.97;5086200;28;20032;-77
2024/03/07 03:35:23;;;;;;;32.75;19.30;;;;;;;6.11;100.00;100042.53;5085984;28;20028;-78
2024/03/07 03:37:49;;;;;;;36.65;19.05;;;;;;;6.11;100.00;100039.88;5068259;28;20446;-78
2024/03/07 03:40:15;;;;;;;24.42;13.43;;;;;;;6.01;100.00;100041.03;5086273;28;20039;-77
2024/03/07 03:42:42;;;;;;;26.98;17.17;;;;;;;6.31;100.00;100071.84;5087056;28;20024;-77
2024/03/07 03:45:09;;;;;;;38.78;23.77;;;;;;;6.37;100.00;100076.38;5067952;28;20513;-77
2024/03/07 03:47:36;;;;;;;27.13;15.02;;;;;;;6.23;100.00;100075.44;5086200;28;20028;-77
2024/03/07 03:50:05;;;;;;;20.38;12.52;;;;;;;6.17;100.00;100066.44;5067976;28;20028;-78
2024/03/07 03:52:31;;;;;;;26.20;15.63;;;;;;;6.06;100.00;100055.53;5085337;28;20036;-78
2024/03/07 03:54:58;;;;;;;24.00;12.50;;;;;;;6.08;100.00;100066.75;5086330;28;20032;-77
2024/03/07 03:57:24;;;;;;;25.38;12.73;;;;;;;6.21;100.00;100072.16;5067856;28;20036;-76
2024/03/07 03:59:50;;;;;;;44.80;27.25;;;;;;;6.32;100.00;100066.34;5085997;28;20054;-77
2024/03/07 04:02:16;;;;;;;25.25;15.27;;;;;;;6.19;100.00;100069.72;5085520;28;20473;-77
2024/03/07 04:04:42;;;;;;;44.58;24.58;;;;;;;6.22;100.00;100060.56;5085975;28;20024;-77
2024/03/07 04:07:08;;;;;;;32.88;18.40;;;;;;;6.27;100.00;100047.56;5085877;28;20036;-77
2024/03/07 04:09:33;;;;;;;43.92;23.17;;;;;;;6.53;100.00;100064.69;5086368;28;20061;-77
2024/03/07 04:11:59;;;;;;;40.53;21.98;;;;;;;6.36;100.00;100056.22;5083130;28;20032;-78
2024/03/07 04:14:25;;;;;;;24.00;12.93;;;;;;;6.26;100.00;100074.25;5085954;28;20366;-77
2024/03/07 04:16:50;;;;;;;34.47;18.38;;;;;;;6.23;100.00;100056.91;5085816;28;20058;-77
2024/03/07 04:19:17;;;;;;;29.88;16.48;;;;;;;6.29;100.00;100063.25;5086389;28;20024;-77
2024/03/07 04:21:43;;;;;;;23.55;12.73;;;;;;;6.34;100.00;100061.69;5086004;28;20028;-77
2024/03/07 04:24:09;;;;;;;26.17;13.70;;;;;;;6.42;100.00;100068.69;5085653;28;20635;-77
2024/03/07 04:26:34;;;;;;;37.88;20.60;;;;;;;6.26;100.00;100037.19;5067712;28;20024;-77
2024/03/07 04:28:59;;;;;;;35.70;17.05;;;;;;;6.26;100.00;100053.88;5067728;28;20055;-77
2024/03/07 04:31:25;;;;;;;42.40;18.58;;;;;;;6.21;100.00;100065.03;5076940;28;20107;-78
2024/03/07 04:33:50;;;;;;;44.72;20.73;;;;;;;6.31;100.00;100072.66;5085787;28;20028;-78
2024/03/07 04:36:16;;;;;;;43.45;19.88;;;;;;;6.27;100.00;100070.56;5089510;28;20020;-78
2024/03/07 04:38:45;;;;;;;39.08;18.40;;;;;;;6.44;100.00;100083.38;5066586;28;20039;-78
2024/03/07 04:41:15;;;;;;;;;;;;;;;6.51;100.00;100098.50;5085479;28;20032;-78
2024/03/07 04:43:42;;;;;;;21.90;11.63;;;;;;;6.21;100.00;100062.41;5071095;28;19987;-78
2024/03/07 04:46:08;;;;;;;22.02;11.18;;;;;;;6.53;100.00;100099.13;5089302;28;20030;-77
2024/03/07 04:48:34;;;;;;;22.45;12.05;;;;;;;6.57;100.00;100092.44;5069227;28;20036;-77
2024/03/07 04:50:59;;;;;;;16.85;10.43;;;;;;;6.55;100.00;100083.84;5070409;28;20104;-77
2024/03/07 04:53:24;;;;;;;20.75;12.00;;;;;;;6.50;100.00;100081.78;5088856;28;20028;-78
2024/03/07 04:55:50;;;;;;;23.77;13.30;;;;;;;6.48;100.00;100082.97;5088832;28;20092;-78
2024/03/07 04:58:16;;;;;;;24.30;12.85;;;;;;;6.47;100.00;100076.84;5089471;28;20108;-78
2024/03/07 05:00:41;;;;;;;21.13;12.60;;;;;;;6.44;100.00;100067.47;5066578;28;20499;-78
2024/03/07 05:03:07;;;;;;;23.13;12.32;;;;;;;6.33;100.00;100075.94;5081024;28;20554;-77
2024/03/07 05:05:32;;;;;;;22.63;12.55;;;;;;;6.10;100.00;100051.50;5088508;28;20032;-79
2024/03/07 05:07:58;;;;;;;26.38;13.43;;;;;;;6.40;100.00;100079.47;5070553;28;20040;-78
2024/03/07 05:10:24;;;;;;;22.88;13.27;;;;;;;6.46;100.00;100096.44;5089176;28;20047;-78
2024/03/07 05:12:50;;;;;;;26.08;16.50;;;;;;;6.49;100.00;100090.72;5088143;28;20032;-77
2024/03/07 05:15:15;;;;;;;32.63;17.13;;;;;;;6.48;100.00;100077.66;5080616;28;20494;-78
2024/03/07 05:17:42;;;;;;;139.23;63.72;;;;;;;6.31;100.00;100077.94;5072239;28;20039;-78
2024/03/07 05:20:12;;;;;;;47.15;25.17;;;;;;;6.24;100.00;100058.53;5050724;28;20027;-78
2024/03/07 05:22:47;;;;;;;47.75;24.80;;;;;;;6.36;100.00;100096.75;5081381;28;20031;-78
2024/03/07 05:25:12;;;;;;;90.25;46.05;;;;;;;6.37;100.00;100098.38;5088565;28;20031;-78
2024/03/07 05:27:38;;;;;;;38.70;19.83;;;;;;;6.46;100.00;100100.88;5070073;28;20044;-78
2024/03/07 05:30:09;;;;;;;45.22;33.35;;;;;;;6.23;100.00;100091.31;5088938;28;20016;-78
2024/03/07 05:32:34;;;;;;;24.77;16.90;;;;;;;6.36;100.00;100096.75;5088067;28;20055;-78
2024/03/07 05:35:00;;;;;;;25.13;14.50;;;;;;;6.35;100.00;100089.78;5088163;28;20035;-78
2024/03/07 05:37:25;;;;;;;25.38;14.73;;;;;;;6.46;100.00;100088.47;5070099;28;20043;-77
2024/03/07 05:39:52;;;;;;;22.50;12.57;;;;;;;6.42;100.00;100088.03;5088205;28;20540;-78
2024/03/07 05:42:17;;;;;;;25.13;14.13;;;;;;;6.52;100.00;100086.88;5079631;28;20036;-78
2024/03/07 05:44:43;;;;;;;28.73;13.85;;;;;;;6.48;100.00;100081.16;5087278;28;20035;-78
2024/03/07 05:47:09;;;;;;;26.05;15.82;;;;;;;6.48;100.00;100105.00;5088452;28;20028;-78
2024/03/07 05:49:36;;;;;;;31.60;16.88;;;;;;;6.61;100.00;100094.50;5073606;28;20036;-77
2024/03/07 05:52:02;;;;;;;24.80;14.95;;;;;;;6.72;100.00;100106.44;5084284;28;20062;-78
2024/03/07 05:54:29;;;;;;;26.50;14.23;;;;;;;6.46;100.00;100071.75;5087814;28;20582;-78
2024/03/07 05:56:55;;;;;;;32.33;16.75;;;;;;;6.58;100.00;100089.59;5087917;28;20470;-78
2024/03/07 05:59:21;;;;;;;28.75;14.45;;;;;;;6.56;100.00;100106.69;5088158;28;20038;-79
2024/03/07 06:01:47;;;;;;;28.13;14.73;;;;;;;6.55;100.00;100092.63;5069559;28;20016;-78
2024/03/07 06:04:12;;;;;;;43.65;25.83;;;;;;;6.72;100.00;100090.53;5087604;28;20111;-78
2024/03/07 06:06:38;;;;;;;27.30;15.40;;;;;;;6.66;100.00;100116.94;5069610;28;20123;-78
2024/03/07 06:09:08;;;;;;;26.83;15.80;;;;;;;6.71;100.00;100107.44;5088272;28;20835;-77
2024/03/07 06:11:38;;;;;;;24.92;14.60;;;;;;;6.59;100.00;100112.41;5087361;28;20481;-78
2024/03/07 06:14:05;;;;;;;33.22;18.65;;;;;;;6.31;100.00;100112.38;5080666;28;20040;-77
2024/03/07 06:16:32;;;;;;;27.17;14.65;;;;;;;6.23;100.00;100102.75;5087593;28;20506;-78
2024/03/07 06:19:02;;;;;;;28.40;14.32;;;;;;;6.18;100.00;100093.72;5069533;28;20101;-79
2024/03/07 06:21:32;;;;;;;24.42;13.35;;;;;;;5.93;100.00;100090.59;5087620;28;20499;-79
2024/03/07 06:24:00;;;;;;;22.38;13.30;;;;;;;5.98;100.00;100089.03;5077724;28;20280;-78
2024/03/07 06:26:37;;;;;;;26.52;13.15;;;;;;;5.98;100.00;100104.94;5087869;28;20077;-79
2024/03/07 06:29:05;;;;;;;27.52;14.20;;;;;;;5.94;100.00;100100.97;5084946;28;20044;-79
2024/03/07 06:31:31;;;;;;;30.00;17.70;;;;;;;5.98;100.00;100096.19;5087455;28;20054;-79
2024/03/07 06:33:57;;;;;;;27.00;15.57;;;;;;;5.89;100.00;100099.94;5087271;28;20119;-79
2024/03/07 06:36:23;;;;;;;52.45;32.45;;;;;;;5.90;100.00;100123.53;5087789;28;20142;-78
2024/03/07 06:38:49;;;;;;;35.72;19.52;;;;;;;6.02;100.00;100137.97;5086875;28;20081;-78
2024/03/07 06:41:14;;;;;;;41.47;23.48;;;;;;;6.06;100.00;100132.31;5086699;28;20036;-78
2024/03/07 06:43:39;;;;;;;35.22;21.55;;;;;;;6.07;100.00;100140.06;5076103;28;20118;-78
2024/03/07 06:46:06;;;;;;;35.10;19.35;;;;;;;6.07;100.00;100148.00;5073863;28;20111;-78
2024/03/07 06:48:31;;;;;;;36.85;20.15;;;;;;;6.24;100.00;100159.19;5086372;28;20024;-78
2024/03/07 06:50:57;;;;;;;47.22;26.52;;;;;;;6.41;100.00;100146.50;5087046;28;20038;-78
2024/03/07 06:53:26;;;;;;;43.65;22.45;;;;;;;6.42;100.00;100156.09;5086464;28;20032;-79
2024/03/07 06:55:53;;;;;;;61.15;32.42;;;;;;;6.60;100.00;100174.22;5086702;28;20458;-78
2024/03/07 06:58:20;;;;;;;36.92;20.17;;;;;;;6.37;100.00;100135.47;5085874;28;20085;-78
2024/03/07 07:00:45;;;;;;;45.95;24.48;;;;;;;6.48;100.00;100157.16;5076904;28;20019;-79
2024/03/07 07:03:12;;;;;;;44.60;24.60;;;;;;;6.43;100.00;100158.53;5083829;28;20173;-78
2024/03/07 07:05:40;;;;;;;43.70;23.30;;;;;;;6.81;100.00;100158.28;5086087;28;20555;-78
2024/03/07 07:08:06;;;;;;;41.42;21.88;;;;;;;6.75;100.00;100158.22;5084000;28;20024;-79
2024/03/07 07:10:32;;;;;;;39.28;20.60;;;;;;;6.73;100.00;100149.66;5070215;28;20051;-78
2024/03/07 07:12:57;;;;;;;35.55;22.17;;;;;;;6.89;100.00;100148.56;5086371;28;20507;-78
2024/03/07 07:15:23;;;;;;;32.45;18.58;;;;;;;6.86;100.00;100148.91;5086113;28;20031;-79
2024/03/07 07:17:49;;;;;;;32.65;20.73;;;;;;;6.63;100.00;100147.31;5068480;28;20059;-78
2024/03/07 07:20:19;;;;;;;33.47;18.23;;;;;;;6.78;100.00;100166.63;5086269;28;20026;-78
2024/03/07 07:22:47;;;;;;;29.45;17.00;;;;;;;6.75;100.00;100169.63;5086775;28;20493;-77
2024/03/07 07:25:14;;;;;;;33.08;19.38;;;;;;;6.52;100.00;100169.84;5068426;28;20031;-78
2024/03/07 07:27:50;;;;;;;39.03;23.92;;;;;;;6.38;100.00;100153.00;5086479;28;20051;-78
2024/03/07 07:30:17;;;;;;;32.28;18.30;;;;;;;6.49;100.00;100180.00;5086743;28;20028;-78
2024/03/07 07:32:43;;;;;;;34.15;19.45;;;;;;;6.55;100.00;100171.28;5086455;28;20093;-78
2024/03/07 07:35:12;;;;;;;35.05;19.75;;;;;;;6.56;100.00;100171.13;5068464;28;20028;-77
2024/03/07 07:37:38;;;;;;;35.00;22.00;;;;;;;6.66;100.00;100177.91;5086427;28;20414;-78
2024/03/07 07:40:03;;;;;;;47.00;27.58;;;;;;;6.64;100.00;100168.34;5086701;28;20027;-78
2024/03/07 07:42:29;;;;;;;51.38;28.30;;;;;;;6.59;100.00;100160.13;5086569;28;20448;-78
2024/03/07 07:44:54;;;;;;;41.75;24.23;;;;;;;6.82;100.00;100182.94;5085605;28;20031;-79
2024/03/07 07:47:20;;;;;;;42.88;27.77;;;;;;;6.78;100.00;100185.19;5085938;28;20031;-77
2024/03/07 07:49:45;;;;;;;39.75;24.00;;;;;;;6.24;100.00;100151.22;5086772;28;20035;-77
2024/03/07 07:52:11;;;;;;;49.92;29.67;;;;;;;6.60;100.00;100167.06;5080034;28;20040;-77
2024/03/07 07:54:42;;;;;;;156.45;95.22;;;;;;;6.77;100.00;100175.56;5086268;28;20039;-77
2024/03/07 07:57:07;;;;;;;43.25;27.63;;;;;;;6.62;100.00;100158.94;5086083;28;20514;-78
2024/03/07 07:59:33;;;;;;;34.78;22.85;;;;;;;6.94;100.00;100181.41;5085347;28;20146;-77
2024/03/07 08:01:58;;;;;;;38.70;21.77;;;;;;;6.97;100.00;100190.81;5086129;28;20024;-77
2024/03/07 08:04:23;;;;;;;33.97;20.23;;;;;;;6.71;100.00;100178.97;5084788;28;20644;-78
2024/03/07 08:06:49;;;;;;;32.78;19.08;;;;;;;6.59;100.00;100204.34;5086416;28;20028;-78
2024/03/07 08:09:16;;;;;;;32.50;22.63;;;;;;;6.67;100.00;100198.13;5088739;28;20435;-78
2024/03/07 08:11:42;;;;;;;42.55;28.48;;;;;;;6.70;100.00;100172.06;5072609;28;20396;-77
2024/03/07 08:14:08;;;;;;;39.50;22.20;;;;;;;6.60;100.00;100192.75;5090095;28;20477;-78
2024/03/07 08:16:33;;;;;;;55.78;35.05;;;;;;;6.87;100.00;100193.00;5090151;28;20072;-78
2024/03/07 08:18:59;;;;;;;44.80;29.48;;;;;;;6.97;100.00;100183.69;5089155;28;20112;-77
2024/03/07 08:21:24;;;;;;;42.63;26.58;;;;;;;6.83;100.00;100182.75;5089976;28;20024;-77
2024/03/07 08:23:50;;;;;;;67.93;35.95;;;;;;;6.66;100.00;100192.00;5071377;28;20050;-77
2024/03/07 08:26:18;;;;;;;71.63;46.45;;;;;;;6.98;100.00;100195.09;5071569;28;20032;-77
2024/03/07 08:28:43;;;;;;;73.40;40.85;;;;;;;6.77;100.00;100178.22;5089445;28;20565;-78
2024/03/07 08:31:09;;;;;;;41.10;24.60;;;;;;;6.91;100.00;100189.75;5089927;28;20127;-78
2024/03/07 08:33:35;;;;;;;34.85;23.00;;;;;;;6.90;100.00;100192.59;5072012;28;20032;-78
2024/03/07 08:36:00;;;;;;;36.85;21.33;;;;;;;6.93;100.00;100197.53;5089268;28;20111;-78
2024/03/07 08:38:26;;;;;;;29.40;18.02;;;;;;;6.69;100.00;100207.50;5069473;28;20460;-78
2024/03/07 08:40:51;;;;;;;40.13;20.48;;;;;;;6.83;100.00;100219.88;5073605;28;20081;-78
2024/03/07 08:43:16;;;;;;;31.83;18.02;;;;;;;6.91;100.00;100207.50;5083447;28;20111;-77
2024/03/07 08:45:42;;;;;;;31.45;17.70;;;;;;;6.98;100.00;100216.31;5088414;28;20431;-77
2024/03/07 08:48:08;;;;;;;27.85;16.73;;;;;;;7.04;100.00;100218.19;5085678;28;20036;-78
2024/03/07 08:50:34;;;;;;;33.33;17.88;;;;;;;6.83;100.00;100193.34;5071558;28;20070;-78
2024/03/07 08:53:00;;;;;;;28.10;16.27;;;;;;;6.92;100.00;100206.47;5089488;28;20036;-77
2024/03/07 08:55:26;;;;;;;28.98;17.02;;;;;;;6.84;100.00;100213.56;5089310;28;20024;-78
2024/03/07 08:57:51;;;;;;;36.20;21.50;;;;;;;6.99;100.00;100207.38;5089317;28;20463;-77
2024/03/07 09:00:24;;;;;;;137.38;44.72;;;;;;;7.10;100.00;100224.56;5071098;28;20078;-77
2024/03/07 09:02:54;;;;;;;31.30;16.17;;;;;;;7.06;100.00;100223.31;5089263;28;20028;-77
2024/03/07 09:05:24;;;;;;;32.70;16.55;;;;;;;7.04;100.00;100232.28;5070053;28;20028;-77
2024/03/07 09:07:51;;;;;;;52.03;41.22;;;;;;;7.10;100.00;100236.00;5083511;28;20111;-77
2024/03/07 09:10:18;;;;;;;76.30;65.53;;;;;;;7.17;100.00;100242.19;5080799;28;20481;-77
2024/03/07 09:12:44;;;;;;;29.35;19.00;;;;;;;7.01;100.00;100221.25;5089214;28;20031;-77
2024/03/07 09:15:11;;;;;;;37.42;25.58;;;;;;;7.22;100.00;100238.94;5088642;28;20508;-77
2024/03/07 09:17:37;;;;;;;28.45;17.42;;;;;;;7.26;100.00;100226.94;5082026;28;20024;-77
2024/03/07 09:20:05;;;;;;;37.03;22.05;;;;;;;7.13;100.00;100230.31;5087998;28;20024;-77
2024/03/07 09:22:31;;;;;;;;;;;;;;;7.13;100.00;100238.28;5089447;28;20390;-76
2024/03/07 09:24:57;;;;;;;32.33;19.02;;;;;;;7.20;100.00;100225.06;5104369;28;19916;-77
2024/03/07 09:27:22;;;;;;;35.75;19.90;;;;;;;7.21;100.00;100238.13;5088904;28;20048;-77
2024/03/07 09:29:48;;;;;;;38.08;22.00;;;;;;;7.19;100.00;100224.25;5089266;28;20595;-77
2024/03/07 09:32:14;;;;;;;35.40;19.60;;;;;;;7.28;100.00;100221.44;5071301;28;20020;-77
2024/03/07 09:34:40;;;;;;;28.60;17.05;;;;;;;7.14;100.00;100226.66;5088984;28;20020;-77
2024/03/07 09:37:08;;;;;;;43.30;27.80;;;;;;;6.99;100.00;100213.47;5089302;28;20027;-76
2024/03/07 09:39:37;;;;;;;40.17;23.17;;;;;;;7.38;100.00;100238.66;5089256;28;20028;-77
2024/03/07 09:42:03;;;;;;;32.58;20.92;;;;;;;7.26;100.00;100220.81;5071532;28;20206;-76
2024/03/07 09:44:31;;;;;;;29.85;16.48;;;;;;;7.42;100.00;100236.44;5088577;28;20060;-76
2024/03/07 09:46:58;;;;;;;34.50;19.95;;;;;;;7.26;100.00;100239.41;5089652;28;20044;-76
2024/03/07 09:49:28;;;;;;;35.55;24.58;;;;;;;7.20;100.00;100244.44;5089755;28;20029;-76
2024/03/07 09:51:56;;;;;;;32.72;20.63;;;;;;;7.26;100.00;100245.50;5098002;28;20039;-76
2024/03/07 09:54:25;;;;;;;32.08;18.50;;;;;;;7.30;100.00;100240.66;5097062;28;20039;-77
2024/03/07 09:56:53;;;;;;;37.85;23.70;;;;;;;7.30;100.00;100214.13;5097363;28;20047;-77
2024/03/07 09:59:22;;;;;;;42.78;28.48;;;;;;;7.69;100.00;100228.66;5097000;28;20052;-77
2024/03/07 10:01:51;;;;;;;43.03;26.67;;;;;;;7.70;100.00;100256.81;5097018;28;20065;-77
2024/03/07 10:04:26;;;;;;;60.22;33.95;;;;;;;7.62;100.00;100263.09;5097605;28;20028;-78
2024/03/07 10:06:53;;;;;;;85.47;49.53;;;;;;;7.27;100.00;100217.16;5076620;28;20047;-78
2024/03/07 10:09:21;;;;;;;49.60;27.70;;;;;;;7.72;100.00;100254.78;5095146;28;20518;-78
2024/03/07 10:11:56;;;;;;;50.72;26.02;;;;;;;7.42;100.00;100239.09;5096606;28;20023;-78
2024/03/07 10:14:22;;;;;;;46.63;27.02;;;;;;;7.58;100.00;100246.75;5095289;28;20028;-77
2024/03/07 10:16:47;;;;;;;39.17;25.88;;;;;;;7.50;100.00;100238.09;5095139;28;20050;-78
2024/03/07 10:19:12;;;;;;;38.95;22.50;;;;;;;7.27;100.00;100247.13;5095271;28;20042;-77
2024/03/07 10:21:40;;;;;;;42.70;26.33;;;;;;;7.47;100.00;100252.59;5093022;28;20043;-78
2024/03/07 10:24:07;;;;;;;42.88;24.90;;;;;;;7.74;100.00;100242.13;5091830;28;20090;-78
2024/03/07 10:26:34;;;;;;;38.58;19.65;;;;;;;7.56;100.00;100227.56;5071539;28;20105;-79
2024/03/07 10:29:00;;;;;;;33.20;20.10;;;;;;;7.62;100.00;100255.97;5088989;28;20082;-77
2024/03/07 10:31:32;;;;;;;33.08;20.25;;;;;;;7.65;100.00;100263.53;5070689;28;20055;-77
2024/03/07 10:34:04;;;;;;;42.00;23.83;;;;;;;7.65;100.00;100260.88;5088258;28;20495;-78
2024/03/07 10:36:31;;;;;;;35.13;19.88;;;;;;;7.16;100.00;100260.94;5069945;28;20111;-76
2024/03/07 10:39:16;;;;;;;36.00;24.27;;;;;;;7.45;100.00;100259.94;5088029;28;20050;-78
2024/03/07 10:41:49;;;;;;;34.38;20.65;;;;;;;7.48;100.00;100251.59;5088249;28;20051;-77
2024/03/07 10:44:28;;;;;;;33.60;21.38;;;;;;;7.51;100.00;100243.22;5087514;28;20752;-77
2024/03/07 10:46:57;;;;;;;36.40;21.08;;;;;;;7.57;100.00;100273.50;5087794;28;20047;-76
2024/03/07 10:49:30;;;;;;;34.92;20.30;;;;;;;7.48;100.00;100256.91;5069143;28;20544;-78
2024/03/07 10:52:12;;;;;;;36.78;21.55;;;;;;;7.77;100.00;100279.75;5069371;28;20024;-77
2024/03/07 10:54:51;;;;;;;35.83;20.88;;;;;;;7.95;100.00;100265.97;5086861;28;20544;-77
2024/03/07 10:57:30;;;;;;;35.75;20.25;;;;;;;7.83;100.00;100257.72;5069069;28;20100;-78
2024/03/07 11:00:24;;;;;;;40.95;22.15;;;;;;;7.64;100.00;100280.50;5068883;28;20478;-77
2024/03/07 11:02:53;;;;;;;38.55;19.63;;;;;;;7.80;100.00;100275.88;5086844;28;20036;-77
2024/03/07 11:05:19;;;;;;;33.75;18.48;;;;;;;7.70;100.00;100265.59;5087135;28;20169;-77
2024/03/07 11:07:46;;;;;;;32.15;19.80;;;;;;;7.84;100.00;100272.63;5086747;28;20097;-77